Time,TemperatureF,DewpointF,PressureIn,WindDirection,WindDirectionDegrees,WindSpeedMPH,WindSpeedGustMPH,Humidity,HourlyPrecipIn,Conditions,Clouds,dailyrainin,SoftwareType,DateUTC
2013-02-09 00:00:00,61.3,58.7,30.10,ENE,60,8.0,12.0,91,0.00,,---,0.00,VWS V14.01,2013-02-09 06:00:00,
2013-02-09 00:05:00,61.3,58.7,30.10,ENE,76,5.0,9.0,91,0.00,,---,0.00,VWS V14.01,2013-02-09 06:05:00,
2013-02-09 00:10:00,61.2,58.6,30.10,ENE,70,4.0,9.0,91,0.00,,---,0.00,VWS V14.01,2013-02-09 06:10:00,
2013-02-09 00:15:00,61.2,58.6,30.10,ENE,75,5.0,9.0,91,0.00,,---,0.00,VWS V14.01,2013-02-09 06:15:00,
2013-02-09 00:20:00,61.2,58.6,30.10,ENE,70,3.0,9.0,91,0.00,,---,0.00,VWS V14.01,2013-02-09 06:20:00,
2013-02-09 00:25:00,61.2,58.6,30.09,East,83,8.0,9.0,91,0.00,,---,0.00,VWS V14.01,2013-02-09 06:25:00,
2013-02-09 00:30:00,61.2,58.6,30.09,ENE,72,5.0,10.0,91,0.00,,---,0.00,VWS V14.01,2013-02-09 06:30:00,
2013-02-09 00:35:00,61.2,58.6,30.09,NE,46,6.0,10.0,91,0.00,,---,0.00,VWS V14.01,2013-02-09 06:35:00,
2013-02-09 00:40:00,61.2,58.6,30.09,East,89,5.0,10.0,91,0.00,,---,0.00,VWS V14.01,2013-02-09 06:40:00,
2013-02-09 00:45:00,61.2,58.9,30.09,East,87,5.0,10.0,92,0.00,,---,0.00,VWS V14.01,2013-02-09 06:45:00,
2013-02-09 00:50:00,61.2,58.9,30.08,East,80,7.0,10.0,92,0.00,,---,0.00,VWS V14.01,2013-02-09 06:50:00,
2013-02-09 00:55:00,61.1,58.8,30.08,East,101,8.0,10.0,92,0.00,,---,0.00,VWS V14.01,2013-02-09 06:55:00,
2013-02-09 01:00:00,61.1,59.1,30.07,East,84,4.0,10.0,93,0.00,,---,0.00,VWS V14.01,2013-02-09 07:00:00,
2013-02-09 01:05:00,61.1,59.1,30.07,East,90,6.0,10.0,93,0.00,,---,0.00,VWS V14.01,2013-02-09 07:05:00,
2013-02-09 01:10:00,61.1,59.1,30.08,ENE,69,7.0,10.0,93,0.00,,---,0.00,VWS V14.01,2013-02-09 07:10:00,
2013-02-09 01:15:00,61.1,59.1,30.08,East,79,3.0,10.0,93,0.00,,---,0.00,VWS V14.01,2013-02-09 07:15:00,
2013-02-09 01:20:00,61.0,59.0,30.08,ENE,71,5.0,11.0,93,0.00,,---,0.00,VWS V14.01,2013-02-09 07:20:00,
2013-02-09 01:25:00,61.0,59.0,30.08,East,97,7.0,11.0,93,0.00,,---,0.00,VWS V14.01,2013-02-09 07:25:00,
2013-02-09 01:30:00,60.9,58.9,30.08,ENE,71,4.0,11.0,93,0.00,,---,0.00,VWS V14.01,2013-02-09 07:30:00,
2013-02-09 01:35:00,60.8,58.8,30.08,East,81,8.0,11.0,93,0.00,,---,0.00,VWS V14.01,2013-02-09 07:35:00,
2013-02-09 01:40:00,60.8,58.8,30.08,ENE,67,5.0,11.0,93,0.00,,---,0.00,VWS V14.01,2013-02-09 07:40:00,
2013-02-09 01:45:00,60.8,58.8,30.08,ENE,69,12.0,12.0,93,0.00,,---,0.00,VWS V14.01,2013-02-09 07:45:00,
2013-02-09 01:50:00,60.9,58.9,30.08,ENE,68,5.0,12.0,93,0.00,,---,0.00,VWS V14.01,2013-02-09 07:50:00,
2013-02-09 01:55:00,61.0,59.0,30.08,ENE,74,6.0,12.0,93,0.00,,---,0.00,VWS V14.01,2013-02-09 07:55:00,
2013-02-09 02:00:00,61.0,59.0,30.08,ENE,71,6.0,12.0,93,0.00,,---,0.00,VWS V14.01,2013-02-09 08:00:00,
2013-02-09 02:05:00,60.9,58.9,30.08,ENE,65,5.0,7.0,93,0.00,,---,0.00,VWS V14.01,2013-02-09 08:05:00,
2013-02-09 02:10:00,60.9,58.9,30.08,ENE,61,4.0,8.0,93,0.00,,---,0.00,VWS V14.01,2013-02-09 08:10:00,
2013-02-09 02:15:00,60.9,59.2,30.08,ENE,69,5.0,8.0,94,0.00,,---,0.00,VWS V14.01,2013-02-09 08:15:00,
2013-02-09 02:20:00,61.0,59.0,30.08,ENE,67,3.0,8.0,93,0.00,,---,0.00,VWS V14.01,2013-02-09 08:20:00,
2013-02-09 02:25:00,61.1,59.1,30.08,East,79,6.0,10.0,93,0.00,,---,0.00,VWS V14.01,2013-02-09 08:25:00,
2013-02-09 02:29:00,61.1,59.1,30.08,ENE,62,6.0,10.0,93,0.00,,---,0.00,VWS V14.01,2013-02-09 08:29:00,
2013-02-09 02:34:00,61.1,59.1,30.07,ENE,67,8.0,12.0,93,0.00,,---,0.00,VWS V14.01,2013-02-09 08:34:00,
2013-02-09 02:39:00,61.2,59.2,30.07,ENE,69,6.0,12.0,93,0.00,,---,0.00,VWS V14.01,2013-02-09 08:39:00,
2013-02-09 02:44:00,61.2,59.2,30.07,ENE,75,7.0,13.0,93,0.00,,---,0.00,VWS V14.01,2013-02-09 08:44:00,
2013-02-09 02:49:00,61.2,59.2,30.07,East,86,7.0,13.0,93,0.00,,---,0.00,VWS V14.01,2013-02-09 08:49:00,
2013-02-09 02:54:00,61.1,59.1,30.07,ENE,63,5.0,13.0,93,0.00,,---,0.00,VWS V14.01,2013-02-09 08:54:00,
2013-02-09 02:59:00,61.1,59.1,30.07,ENE,68,4.0,13.0,93,0.00,,---,0.00,VWS V14.01,2013-02-09 08:59:00,
2013-02-09 03:04:00,61.1,59.1,30.07,ENE,60,10.0,12.0,93,0.00,,---,0.00,VWS V14.01,2013-02-09 09:04:00,
2013-02-09 03:10:00,61.1,59.1,30.07,East,88,7.0,13.0,93,0.00,,---,0.00,VWS V14.01,2013-02-09 09:10:00,
2013-02-09 03:15:00,61.0,59.0,30.07,ENE,68,12.0,16.0,93,0.00,,---,0.00,VWS V14.01,2013-02-09 09:15:00,
2013-02-09 03:20:00,61.0,59.0,30.07,ENE,78,7.0,16.0,93,0.00,,---,0.00,VWS V14.01,2013-02-09 09:20:00,
2013-02-09 03:25:00,60.9,58.9,30.06,East,88,6.0,16.0,93,0.00,,---,0.00,VWS V14.01,2013-02-09 09:25:00,
2013-02-09 03:30:00,60.9,58.9,30.06,ENE,75,7.0,16.0,93,0.00,,---,0.00,VWS V14.01,2013-02-09 09:30:00,
2013-02-09 03:35:00,60.8,58.8,30.06,East,82,5.0,16.0,93,0.00,,---,0.00,VWS V14.01,2013-02-09 09:35:00,
2013-02-09 03:40:00,60.8,59.1,30.06,ENE,57,8.0,16.0,94,0.00,,---,0.00,VWS V14.01,2013-02-09 09:40:00,
2013-02-09 03:45:00,60.8,59.1,30.06,ENE,72,5.0,16.0,94,0.00,,---,0.00,VWS V14.01,2013-02-09 09:45:00,
2013-02-09 03:50:00,60.8,59.1,30.06,ENE,68,7.0,16.0,94,0.00,,---,0.00,VWS V14.01,2013-02-09 09:50:00,
2013-02-09 03:55:00,60.8,59.1,30.06,East,84,5.0,16.0,94,0.00,,---,0.00,VWS V14.01,2013-02-09 09:55:00,
2013-02-09 04:00:00,60.7,59.0,30.06,ENE,71,6.0,16.0,94,0.00,,---,0.00,VWS V14.01,2013-02-09 10:00:00,
2013-02-09 04:05:00,60.7,59.0,30.06,ENE,61,6.0,10.0,94,0.00,,---,0.00,VWS V14.01,2013-02-09 10:05:00,
2013-02-09 04:10:00,60.7,59.3,30.06,ESE,117,6.0,12.0,95,0.00,,---,0.00,VWS V14.01,2013-02-09 10:10:00,
2013-02-09 04:15:00,60.7,59.3,30.05,ENE,70,8.0,13.0,95,0.00,,---,0.00,VWS V14.01,2013-02-09 10:15:00,
2013-02-09 04:20:00,60.7,59.3,30.05,ENE,70,14.0,14.0,95,0.00,,---,0.00,VWS V14.01,2013-02-09 10:20:00,
2013-02-09 04:25:00,60.7,59.3,30.05,East,85,9.0,15.0,95,0.00,,---,0.00,VWS V14.01,2013-02-09 10:25:00,
2013-02-09 04:30:00,60.6,59.2,30.05,ESE,108,5.0,15.0,95,0.00,,---,0.00,VWS V14.01,2013-02-09 10:30:00,
2013-02-09 04:34:00,60.7,59.3,30.05,ENE,78,11.0,15.0,95,0.00,,---,0.00,VWS V14.01,2013-02-09 10:34:00,
2013-02-09 04:39:00,60.7,59.3,30.05,ENE,64,10.0,15.0,95,0.00,,---,0.00,VWS V14.01,2013-02-09 10:39:00,
2013-02-09 04:44:00,60.7,59.3,30.05,NE,46,9.0,15.0,95,0.00,,---,0.00,VWS V14.01,2013-02-09 10:44:00,
2013-02-09 04:49:00,60.7,59.3,30.05,ENE,65,5.0,15.0,95,0.00,,---,0.00,VWS V14.01,2013-02-09 10:49:00,
2013-02-09 04:54:00,60.8,59.4,30.05,ENE,69,7.0,15.0,95,0.00,,---,0.00,VWS V14.01,2013-02-09 10:54:00,
2013-02-09 04:59:00,60.7,59.3,30.04,ENE,64,11.0,15.0,95,0.00,,---,0.00,VWS V14.01,2013-02-09 10:59:00,
2013-02-09 05:04:00,60.8,59.4,30.04,ENE,64,9.0,11.0,95,0.00,,---,0.00,VWS V14.01,2013-02-09 11:04:00,
2013-02-09 05:09:00,60.9,59.5,30.04,NE,46,9.0,12.0,95,0.00,,---,0.00,VWS V14.01,2013-02-09 11:09:00,
2013-02-09 05:14:00,60.9,59.5,30.04,ENE,61,6.0,12.0,95,0.00,,---,0.00,VWS V14.01,2013-02-09 11:14:00,
2013-02-09 05:19:00,60.9,59.5,30.04,ENE,63,8.0,12.0,95,0.00,,---,0.00,VWS V14.01,2013-02-09 11:19:00,
2013-02-09 05:24:00,61.1,59.7,30.05,ENE,63,7.0,12.0,95,0.00,,---,0.00,VWS V14.01,2013-02-09 11:24:00,
2013-02-09 05:29:00,61.1,59.7,30.05,ENE,77,11.0,12.0,95,0.00,,---,0.00,VWS V14.01,2013-02-09 11:29:00,
2013-02-09 05:34:00,61.3,59.9,30.05,ENE,75,5.0,12.0,95,0.00,,---,0.00,VWS V14.01,2013-02-09 11:34:00,
2013-02-09 05:39:00,61.4,60.0,30.05,ENE,75,6.0,12.0,95,0.00,,---,0.00,VWS V14.01,2013-02-09 11:39:00,
2013-02-09 05:44:00,61.5,60.1,30.05,ENE,74,7.0,12.0,95,0.00,,---,0.00,VWS V14.01,2013-02-09 11:44:00,
2013-02-09 05:49:00,61.6,60.2,30.05,ENE,67,7.0,12.0,95,0.00,,---,0.00,VWS V14.01,2013-02-09 11:49:00,
2013-02-09 05:54:00,61.8,60.4,30.05,ENE,64,5.0,12.0,95,0.00,,---,0.00,VWS V14.01,2013-02-09 11:54:00,
2013-02-09 05:59:00,61.9,60.2,30.05,ENE,68,5.0,12.0,94,0.00,,---,0.00,VWS V14.01,2013-02-09 11:59:00,
2013-02-09 06:04:00,62.0,60.3,30.05,ENE,63,6.0,7.0,94,0.00,,---,0.00,VWS V14.01,2013-02-09 12:04:00,
2013-02-09 06:09:00,62.1,60.4,30.05,NE,53,5.0,9.0,94,0.00,,---,0.00,VWS V14.01,2013-02-09 12:09:00,
2013-02-09 06:14:00,62.2,60.5,30.05,NE,49,5.0,9.0,94,0.00,,---,0.00,VWS V14.01,2013-02-09 12:14:00,
2013-02-09 06:19:00,62.4,60.3,30.05,ENE,69,5.0,11.0,93,0.00,,---,0.00,VWS V14.01,2013-02-09 12:19:00,
2013-02-09 06:24:00,62.5,60.5,30.05,ENE,68,4.0,11.0,93,0.00,,---,0.00,VWS V14.01,2013-02-09 12:24:00,
2013-02-09 06:29:00,62.6,60.5,30.05,ENE,60,5.0,11.0,93,0.00,,---,0.00,VWS V14.01,2013-02-09 12:29:00,
2013-02-09 06:34:00,62.6,60.5,30.05,ENE,73,6.0,11.0,93,0.00,,---,0.00,VWS V14.01,2013-02-09 12:34:00,
2013-02-09 06:39:00,62.7,60.7,30.05,ENE,58,4.0,11.0,93,0.00,,---,0.00,VWS V14.01,2013-02-09 12:39:00,
2013-02-09 06:44:00,62.7,60.7,30.05,ENE,61,4.0,11.0,93,0.00,,---,0.00,VWS V14.01,2013-02-09 12:44:00,
2013-02-09 06:49:00,62.7,60.7,30.05,ENE,57,4.0,11.0,93,0.00,,---,0.00,VWS V14.01,2013-02-09 12:49:00,
2013-02-09 06:54:00,62.7,60.7,30.05,ENE,65,6.0,11.0,93,0.00,,---,0.00,VWS V14.01,2013-02-09 12:54:00,
2013-02-09 06:59:00,62.6,60.5,30.06,NE,50,6.0,11.0,93,0.00,,---,0.00,VWS V14.01,2013-02-09 12:59:00,
2013-02-09 07:04:00,62.5,60.8,30.05,ENE,67,6.0,7.0,94,0.00,,---,0.00,VWS V14.01,2013-02-09 13:04:00,
2013-02-09 07:09:00,62.5,60.8,30.05,ENE,68,11.0,12.0,94,0.00,,---,0.00,VWS V14.01,2013-02-09 13:09:00,
2013-02-09 07:14:00,62.4,60.7,30.05,ENE,65,6.0,12.0,94,0.00,,---,0.00,VWS V14.01,2013-02-09 13:14:00,
2013-02-09 07:19:00,62.4,61.0,30.06,ENE,72,7.0,12.0,95,0.00,,---,0.00,VWS V14.01,2013-02-09 13:19:00,
2013-02-09 07:24:00,62.3,60.8,30.06,ENE,61,13.0,13.0,95,0.00,,---,0.00,VWS V14.01,2013-02-09 13:24:00,
2013-02-09 07:29:00,62.3,60.8,30.06,ENE,72,10.0,13.0,95,0.00,,---,0.00,VWS V14.01,2013-02-09 13:29:00,
2013-02-09 07:34:00,62.3,60.8,30.06,ENE,72,10.0,15.0,95,0.00,,---,0.00,VWS V14.01,2013-02-09 13:34:00,
2013-02-09 07:39:00,62.3,60.8,30.06,ENE,68,9.0,15.0,95,0.00,,---,0.00,VWS V14.01,2013-02-09 13:39:00,
2013-02-09 07:44:00,62.4,61.0,30.06,ENE,72,6.0,15.0,95,0.00,,---,0.00,VWS V14.01,2013-02-09 13:44:00,
2013-02-09 07:49:00,62.4,61.0,30.06,ENE,75,9.0,15.0,95,0.00,,---,0.00,VWS V14.01,2013-02-09 13:49:00,
2013-02-09 07:54:00,62.5,61.0,30.06,ENE,66,10.0,15.0,95,0.00,,---,0.00,VWS V14.01,2013-02-09 13:54:00,
2013-02-09 07:59:00,62.5,61.0,30.06,ENE,74,10.0,15.0,95,0.00,,---,0.00,VWS V14.01,2013-02-09 13:59:00,
2013-02-09 08:04:00,62.5,61.0,30.06,ENE,69,13.0,14.0,95,0.00,,---,0.00,VWS V14.01,2013-02-09 14:04:00,
2013-02-09 08:09:00,62.6,61.2,30.06,ENE,57,7.0,14.0,95,0.00,,---,0.00,VWS V14.01,2013-02-09 14:09:00,
2013-02-09 08:14:00,62.6,60.8,30.06,ENE,64,7.0,14.0,94,0.00,,---,0.00,VWS V14.01,2013-02-09 14:14:00,
2013-02-09 08:19:00,62.8,61.0,30.06,ENE,68,9.0,14.0,94,0.00,,---,0.00,VWS V14.01,2013-02-09 14:19:00,
2013-02-09 08:24:00,62.9,61.2,30.06,East,100,9.0,16.0,94,0.00,,---,0.00,VWS V14.01,2013-02-09 14:24:00,
2013-02-09 08:29:00,63.0,61.2,30.06,East,86,10.0,16.0,94,0.00,,---,0.00,VWS V14.01,2013-02-09 14:29:00,
2013-02-09 08:34:00,63.1,61.3,30.06,NE,53,10.0,16.0,94,0.00,,---,0.00,VWS V14.01,2013-02-09 14:34:00,
2013-02-09 08:39:00,63.2,61.5,30.06,East,81,10.0,16.0,94,0.00,,---,0.00,VWS V14.01,2013-02-09 14:39:00,
2013-02-09 08:44:00,63.2,61.5,30.06,ENE,62,8.0,16.0,94,0.00,,---,0.00,VWS V14.01,2013-02-09 14:44:00,
2013-02-09 08:49:00,63.2,61.5,30.06,East,86,7.0,16.0,94,0.00,,---,0.00,VWS V14.01,2013-02-09 14:49:00,
2013-02-09 08:54:00,63.3,61.5,30.06,East,79,7.0,16.0,94,0.00,,---,0.00,VWS V14.01,2013-02-09 14:54:00,
2013-02-09 08:59:00,63.4,61.7,30.06,ENE,63,11.0,16.0,94,0.00,,---,0.00,VWS V14.01,2013-02-09 14:59:00,
2013-02-09 09:04:00,63.5,61.4,30.06,ENE,61,11.0,13.0,93,0.00,,---,0.00,VWS V14.01,2013-02-09 15:04:00,
2013-02-09 09:09:00,63.6,61.5,30.06,ENE,73,10.0,14.0,93,0.00,,---,0.00,VWS V14.01,2013-02-09 15:09:00,
2013-02-09 09:14:00,63.7,61.6,30.06,NE,53,7.0,15.0,93,0.00,,---,0.00,VWS V14.01,2013-02-09 15:14:00,
2013-02-09 09:19:00,63.8,61.7,30.06,East,84,11.0,15.0,93,0.00,,---,0.00,VWS V14.01,2013-02-09 15:19:00,
2013-02-09 09:24:00,64.0,61.9,30.06,NE,42,6.0,16.0,93,0.00,,---,0.00,VWS V14.01,2013-02-09 15:24:00,
2013-02-09 09:29:00,64.1,62.0,30.06,ESE,117,6.0,16.0,93,0.00,,---,0.00,VWS V14.01,2013-02-09 15:29:00,
2013-02-09 09:34:00,64.3,62.2,30.06,ENE,72,12.0,17.0,93,0.00,,---,0.00,VWS V14.01,2013-02-09 15:34:00,
2013-02-09 09:39:00,64.5,62.4,30.06,ENE,78,6.0,17.0,93,0.00,,---,0.00,VWS V14.01,2013-02-09 15:39:00,
2013-02-09 09:44:00,64.5,62.1,30.06,East,98,7.0,17.0,92,0.00,,---,0.00,VWS V14.01,2013-02-09 15:44:00,
2013-02-09 09:49:00,64.7,62.3,30.06,ENE,77,15.0,17.0,92,0.00,,---,0.00,VWS V14.01,2013-02-09 15:49:00,
2013-02-09 09:54:00,64.8,62.4,30.06,ENE,77,9.0,17.0,92,0.00,,---,0.00,VWS V14.01,2013-02-09 15:54:00,
2013-02-09 09:59:00,65.0,62.6,30.06,ESE,113,10.0,17.0,92,0.00,,---,0.00,VWS V14.01,2013-02-09 15:59:00,
2013-02-09 10:04:00,65.3,62.6,30.05,ENE,57,8.0,12.0,91,0.00,,---,0.00,VWS V14.01,2013-02-09 16:04:00,
2013-02-09 10:09:00,65.4,62.7,30.05,East,91,14.0,14.0,91,0.00,,---,0.00,VWS V14.01,2013-02-09 16:09:00,
2013-02-09 10:14:00,65.1,62.4,30.06,East,88,13.0,15.0,91,0.00,,---,0.00,VWS V14.01,2013-02-09 16:14:00,
2013-02-09 10:19:00,65.0,62.3,30.06,East,81,8.0,15.0,91,0.00,,---,0.00,VWS V14.01,2013-02-09 16:19:00,
2013-02-09 10:24:00,65.0,62.3,30.06,East,92,6.0,15.0,91,0.00,,---,0.00,VWS V14.01,2013-02-09 16:24:00,
2013-02-09 10:29:00,65.0,62.3,30.06,East,93,7.0,15.0,91,0.00,,---,0.00,VWS V14.01,2013-02-09 16:29:00,
2013-02-09 10:34:00,65.0,62.3,30.06,ENE,66,6.0,15.0,91,0.00,,---,0.00,VWS V14.01,2013-02-09 16:34:00,
2013-02-09 10:39:00,65.2,62.5,30.06,ENE,70,7.0,15.0,91,0.00,,---,0.00,VWS V14.01,2013-02-09 16:39:00,
2013-02-09 10:44:00,65.4,62.4,30.06,East,91,8.0,15.0,90,0.00,,---,0.00,VWS V14.01,2013-02-09 16:44:00,
2013-02-09 10:49:00,65.7,62.7,30.05,ENE,73,5.0,15.0,90,0.00,,---,0.00,VWS V14.01,2013-02-09 16:49:00,
2013-02-09 10:54:00,66.1,63.1,30.05,East,94,10.0,15.0,90,0.00,,---,0.00,VWS V14.01,2013-02-09 16:54:00,
2013-02-09 10:59:00,66.3,63.0,30.05,ENE,64,6.0,15.0,89,0.00,,---,0.00,VWS V14.01,2013-02-09 16:59:00,
2013-02-09 11:04:00,66.5,62.8,30.05,East,87,11.0,12.0,88,0.00,,---,0.00,VWS V14.01,2013-02-09 17:04:00,
2013-02-09 11:09:00,66.6,62.9,30.05,ESE,108,8.0,14.0,88,0.00,,---,0.00,VWS V14.01,2013-02-09 17:09:00,
2013-02-09 11:14:00,66.7,63.4,30.05,ESE,115,6.0,14.0,89,0.00,,---,0.00,VWS V14.01,2013-02-09 17:14:00,
2013-02-09 11:19:00,66.7,63.0,30.04,East,88,10.0,14.0,88,0.00,,---,0.00,VWS V14.01,2013-02-09 17:19:00,
2013-02-09 11:24:00,66.6,62.9,30.04,East,91,7.0,14.0,88,0.00,,---,0.00,VWS V14.01,2013-02-09 17:24:00,
2013-02-09 11:29:00,66.6,62.9,30.04,East,86,3.0,14.0,88,0.00,,---,0.00,VWS V14.01,2013-02-09 17:29:00,
2013-02-09 11:34:00,66.4,63.1,30.04,ENE,67,10.0,14.0,89,0.00,,---,0.00,VWS V14.01,2013-02-09 17:34:00,
2013-02-09 11:39:00,66.4,63.1,30.04,ESE,118,6.0,14.0,89,0.00,,---,0.00,VWS V14.01,2013-02-09 17:39:00,
2013-02-09 11:44:00,66.4,63.1,30.04,East,79,9.0,14.0,89,0.00,,---,0.00,VWS V14.01,2013-02-09 17:44:00,
2013-02-09 11:49:00,66.4,63.1,30.03,East,99,8.0,14.0,89,0.00,,---,0.00,VWS V14.01,2013-02-09 17:49:00,
2013-02-09 11:54:00,66.3,63.3,30.03,ESE,112,8.0,14.0,90,0.00,,---,0.00,VWS V14.01,2013-02-09 17:54:00,
2013-02-09 11:59:00,66.4,63.4,30.03,ESE,103,7.0,14.0,90,0.00,,---,0.00,VWS V14.01,2013-02-09 17:59:00,
2013-02-09 12:04:00,66.4,63.4,30.02,East,99,9.0,12.0,90,0.00,,---,0.00,VWS V14.01,2013-02-09 18:04:00,
2013-02-09 12:09:00,66.4,63.4,30.02,ESE,112,8.0,14.0,90,0.00,,---,0.00,VWS V14.01,2013-02-09 18:09:00,
2013-02-09 12:14:00,66.5,63.5,30.02,East,81,7.0,14.0,90,0.00,,---,0.00,VWS V14.01,2013-02-09 18:14:00,
2013-02-09 12:19:00,66.5,63.5,30.01,East,81,9.0,14.0,90,0.00,,---,0.00,VWS V14.01,2013-02-09 18:19:00,
2013-02-09 12:24:00,66.6,63.6,30.01,ESE,108,13.0,16.0,90,0.00,,---,0.00,VWS V14.01,2013-02-09 18:24:00,
2013-02-09 12:29:00,66.7,63.7,30.01,ESE,121,11.0,16.0,90,0.00,,---,0.00,VWS V14.01,2013-02-09 18:29:00,
2013-02-09 12:34:00,66.7,64.0,30.00,East,93,13.0,16.0,91,0.00,,---,0.00,VWS V14.01,2013-02-09 18:34:00,
2013-02-09 12:39:00,66.7,64.0,30.00,ESE,121,7.0,16.0,91,0.00,,---,0.00,VWS V14.01,2013-02-09 18:39:00,
2013-02-09 12:44:00,66.6,63.9,30.00,ESE,105,7.0,16.0,91,0.00,,---,0.00,VWS V14.01,2013-02-09 18:44:00,
2013-02-09 12:49:00,66.5,63.8,29.99,ESE,105,8.0,16.0,91,0.00,,---,0.00,VWS V14.01,2013-02-09 18:49:00,
2013-02-09 12:54:00,66.4,64.0,29.99,ESE,107,7.0,16.0,92,0.00,,---,0.00,VWS V14.01,2013-02-09 18:54:00,
2013-02-09 12:59:00,66.3,63.9,29.99,East,98,12.0,16.0,92,0.00,,---,0.00,VWS V14.01,2013-02-09 18:59:00,
2013-02-09 13:04:00,66.3,63.9,29.98,East,95,8.0,13.0,92,0.00,,---,0.00,VWS V14.01,2013-02-09 19:04:00,
2013-02-09 13:09:00,66.4,64.0,29.97,East,94,10.0,15.0,92,0.00,,---,0.00,VWS V14.01,2013-02-09 19:09:00,
2013-02-09 13:14:00,66.6,64.2,29.97,East,84,8.0,15.0,92,0.00,,---,0.00,VWS V14.01,2013-02-09 19:14:00,
2013-02-09 13:19:00,67.0,64.6,29.96,ESE,120,7.0,15.0,92,0.00,,---,0.00,VWS V14.01,2013-02-09 19:19:00,
2013-02-09 13:24:00,67.3,64.6,29.96,ESE,117,12.0,15.0,91,0.00,,---,0.00,VWS V14.01,2013-02-09 19:24:00,
2013-02-09 13:29:00,67.5,64.8,29.95,ESE,120,7.0,15.0,91,0.00,,---,0.00,VWS V14.01,2013-02-09 19:29:00,
2013-02-09 13:34:00,67.6,64.9,29.95,ESE,105,8.0,17.0,91,0.00,,---,0.00,VWS V14.01,2013-02-09 19:34:00,
2013-02-09 13:39:00,67.9,65.2,29.95,ESE,120,10.0,17.0,91,0.00,,---,0.00,VWS V14.01,2013-02-09 19:39:00,
2013-02-09 13:44:00,68.1,65.1,29.94,East,90,14.0,17.0,90,0.00,,---,0.00,VWS V14.01,2013-02-09 19:44:00,
2013-02-09 13:49:00,68.3,65.3,29.94,SE,129,6.0,17.0,90,0.00,,---,0.00,VWS V14.01,2013-02-09 19:49:00,
2013-02-09 13:54:00,68.4,65.4,29.94,ESE,109,15.0,17.0,90,0.00,,---,0.00,VWS V14.01,2013-02-09 19:54:00,
2013-02-09 13:59:00,68.5,65.5,29.94,ESE,122,12.0,17.0,90,0.00,,---,0.00,VWS V14.01,2013-02-09 19:59:00,
2013-02-09 14:04:00,68.5,65.1,29.93,SE,134,8.0,16.0,89,0.00,,---,0.00,VWS V14.01,2013-02-09 20:04:00,
2013-02-09 14:09:00,68.6,65.6,29.93,ESE,110,10.0,17.0,90,0.00,,---,0.00,VWS V14.01,2013-02-09 20:09:00,
2013-02-09 14:14:00,68.6,65.2,29.93,East,101,11.0,17.0,89,0.00,,---,0.00,VWS V14.01,2013-02-09 20:14:00,
2013-02-09 14:19:00,68.6,65.2,29.93,East,94,15.0,17.0,89,0.00,,---,0.00,VWS V14.01,2013-02-09 20:19:00,
2013-02-09 14:24:00,68.5,65.5,29.92,ESE,115,12.0,18.0,90,0.00,,---,0.00,VWS V14.01,2013-02-09 20:24:00,
2013-02-09 14:29:00,68.4,65.4,29.92,ESE,108,12.0,18.0,90,0.00,,---,0.00,VWS V14.01,2013-02-09 20:29:00,
2013-02-09 14:34:00,68.4,65.4,29.92,SSE,159,14.0,19.0,90,0.00,,---,0.00,VWS V14.01,2013-02-09 20:34:00,
2013-02-09 14:39:00,68.6,65.6,29.92,East,98,15.0,19.0,90,0.00,,---,0.00,VWS V14.01,2013-02-09 20:39:00,
2013-02-09 14:44:00,68.6,65.6,29.92,SE,127,8.0,19.0,90,0.00,,---,0.00,VWS V14.01,2013-02-09 20:44:00,
2013-02-09 14:49:00,68.7,65.7,29.91,East,82,14.0,19.0,90,0.00,,---,0.00,VWS V14.01,2013-02-09 20:49:00,
2013-02-09 14:54:00,68.6,65.6,29.91,East,97,13.0,19.0,90,0.00,,---,0.00,VWS V14.01,2013-02-09 20:54:00,
2013-02-09 14:59:00,68.5,65.5,29.91,ESE,122,12.0,19.0,90,0.00,,---,0.00,VWS V14.01,2013-02-09 20:59:00,
2013-02-09 15:04:00,68.3,65.6,29.91,ESE,120,11.0,16.0,91,0.00,,---,0.00,VWS V14.01,2013-02-09 21:04:00,
2013-02-09 15:09:00,68.3,65.6,29.91,SE,134,8.0,16.0,91,0.00,,---,0.00,VWS V14.01,2013-02-09 21:09:00,
2013-02-09 15:14:00,68.2,65.5,29.90,ESE,114,11.0,16.0,91,0.00,,---,0.00,VWS V14.01,2013-02-09 21:14:00,
2013-02-09 15:19:00,68.3,65.9,29.90,ESE,109,17.0,17.0,92,0.00,,---,0.00,VWS V14.01,2013-02-09 21:19:00,
2013-02-09 15:24:00,68.4,65.7,29.90,East,91,11.0,17.0,91,0.00,,---,0.00,VWS V14.01,2013-02-09 21:24:00,
2013-02-09 15:29:00,68.5,65.8,29.90,ESE,122,9.0,17.0,91,0.00,,---,0.00,VWS V14.01,2013-02-09 21:29:00,
2013-02-09 15:34:00,68.4,65.7,29.90,ESE,115,12.0,17.0,91,0.00,,---,0.00,VWS V14.01,2013-02-09 21:34:00,
2013-02-09 15:39:00,68.3,65.6,29.89,East,101,17.0,17.0,91,0.00,,---,0.00,VWS V14.01,2013-02-09 21:39:00,
2013-02-09 15:44:00,68.1,65.7,29.89,SE,125,9.0,17.0,92,0.00,,---,0.00,VWS V14.01,2013-02-09 21:44:00,
2013-02-09 15:49:00,67.9,65.5,29.89,ESE,110,12.0,17.0,92,0.00,,---,0.00,VWS V14.01,2013-02-09 21:49:00,
2013-02-09 15:54:00,67.6,65.2,29.89,SE,136,11.0,17.0,92,0.00,,---,0.00,VWS V14.01,2013-02-09 21:54:00,
2013-02-09 15:59:00,67.5,65.4,29.89,ESE,116,7.0,17.0,93,0.00,,---,0.00,VWS V14.01,2013-02-09 21:59:00,
2013-02-09 16:04:00,67.4,65.3,29.89,ESE,115,11.0,15.0,93,0.00,,---,0.00,VWS V14.01,2013-02-09 22:04:00,
2013-02-09 16:09:00,67.4,65.3,29.89,ESE,114,9.0,16.0,93,0.00,,---,0.00,VWS V14.01,2013-02-09 22:09:00,
2013-02-09 16:14:00,67.3,65.2,29.89,East,100,12.0,16.0,93,0.00,,---,0.00,VWS V14.01,2013-02-09 22:14:00,
2013-02-09 16:19:00,67.3,65.5,29.88,ESE,117,13.0,16.0,94,0.00,,---,0.00,VWS V14.01,2013-02-09 22:19:00,
2013-02-09 16:24:00,67.2,65.4,29.88,East,92,12.0,16.0,94,0.00,,---,0.00,VWS V14.01,2013-02-09 22:24:00,
2013-02-09 16:29:00,67.1,65.3,29.88,ESE,123,13.0,16.0,94,0.00,,---,0.00,VWS V14.01,2013-02-09 22:29:00,
2013-02-09 16:34:00,67.0,65.2,29.88,ESE,110,11.0,16.0,94,0.00,,---,0.00,VWS V14.01,2013-02-09 22:34:00,
2013-02-09 16:39:00,67.1,65.3,29.88,SE,136,8.0,16.0,94,0.00,,---,0.00,VWS V14.01,2013-02-09 22:39:00,
2013-02-09 16:44:00,67.1,65.3,29.88,East,98,10.0,16.0,94,0.00,,---,0.00,VWS V14.01,2013-02-09 22:44:00,
2013-02-09 16:49:00,67.2,65.4,29.88,ESE,114,12.0,16.0,94,0.00,,---,0.00,VWS V14.01,2013-02-09 22:49:00,
2013-02-09 16:54:00,67.3,65.5,29.87,ESE,110,13.0,16.0,94,0.00,,---,0.00,VWS V14.01,2013-02-09 22:54:00,
2013-02-09 16:59:00,67.3,65.5,29.87,ESE,115,14.0,18.0,94,0.00,,---,0.00,VWS V14.01,2013-02-09 22:59:00,
2013-02-09 17:04:00,67.2,65.4,29.87,SE,134,10.0,13.0,94,0.00,,---,0.00,VWS V14.01,2013-02-09 23:04:00,
2013-02-09 17:09:00,67.2,65.4,29.87,ESE,121,12.0,16.0,94,0.00,,---,0.00,VWS V14.01,2013-02-09 23:09:00,
2013-02-09 17:14:00,67.3,65.8,29.86,ESE,109,8.0,16.0,95,0.00,,---,0.00,VWS V14.01,2013-02-09 23:14:00,
2013-02-09 17:19:00,67.4,65.9,29.86,SE,141,9.0,18.0,95,0.00,,---,0.00,VWS V14.01,2013-02-09 23:19:00,
2013-02-09 17:24:00,67.4,65.9,29.86,ESE,121,9.0,18.0,95,0.00,,---,0.00,VWS V14.01,2013-02-09 23:24:00,
2013-02-09 17:29:00,67.4,65.9,29.86,ESE,120,13.0,18.0,95,0.00,,---,0.00,VWS V14.01,2013-02-09 23:29:00,
2013-02-09 17:34:00,67.5,66.0,29.86,East,95,14.0,18.0,95,0.00,,---,0.00,VWS V14.01,2013-02-09 23:34:00,
2013-02-09 17:39:00,67.5,66.0,29.86,SE,129,12.0,18.0,95,0.00,,---,0.00,VWS V14.01,2013-02-09 23:39:00,
2013-02-09 17:44:00,67.4,65.9,29.85,East,98,13.0,18.0,95,0.00,,---,0.00,VWS V14.01,2013-02-09 23:44:00,
2013-02-09 17:49:00,67.4,65.9,29.85,ESE,107,9.0,18.0,95,0.00,,---,0.00,VWS V14.01,2013-02-09 23:49:00,
2013-02-09 17:54:00,67.4,65.9,29.85,SE,129,12.0,18.0,95,0.00,,---,0.00,VWS V14.01,2013-02-09 23:54:00,
2013-02-09 17:59:00,67.5,66.3,29.85,ESE,121,10.0,18.0,96,0.00,,---,0.00,VWS V14.01,2013-02-09 23:59:00,
2013-02-09 18:04:00,67.5,66.3,29.85,ESE,121,10.0,19.0,96,0.00,,---,0.00,VWS V14.01,2013-02-10 00:04:00,
2013-02-09 18:09:00,67.6,66.4,29.84,ESE,120,12.0,19.0,96,0.00,,---,0.00,VWS V14.01,2013-02-10 00:09:00,
2013-02-09 18:14:00,67.6,66.4,29.84,ESE,116,18.0,19.0,96,0.00,,---,0.00,VWS V14.01,2013-02-10 00:14:00,
2013-02-09 18:19:00,67.7,66.5,29.84,SE,136,10.0,19.0,96,0.00,,---,0.00,VWS V14.01,2013-02-10 00:19:00,
2013-02-09 18:24:00,67.8,66.6,29.84,ESE,108,10.0,20.0,96,0.00,,---,0.00,VWS V14.01,2013-02-10 00:24:00,
2013-02-09 18:29:00,67.8,66.6,29.84,SE,134,13.0,20.0,96,0.00,,---,0.00,VWS V14.01,2013-02-10 00:29:00,
2013-02-09 18:34:00,67.8,66.6,29.84,SE,129,11.0,20.0,96,0.00,,---,0.00,VWS V14.01,2013-02-10 00:34:00,
2013-02-09 18:39:00,67.8,66.6,29.84,SE,129,16.0,20.0,96,0.00,,---,0.00,VWS V14.01,2013-02-10 00:39:00,
2013-02-09 18:44:00,67.7,66.5,29.84,ESE,106,10.0,20.0,96,0.00,,---,0.00,VWS V14.01,2013-02-10 00:44:00,
2013-02-09 18:49:00,67.6,66.4,29.85,ESE,114,9.0,20.0,96,0.00,,---,0.00,VWS V14.01,2013-02-10 00:49:00,
2013-02-09 18:54:00,67.5,66.3,29.85,SE,127,9.0,20.0,96,0.00,,---,0.00,VWS V14.01,2013-02-10 00:54:00,
2013-02-09 18:59:00,67.5,66.3,29.86,SE,125,8.0,20.0,96,0.00,,---,0.00,VWS V14.01,2013-02-10 00:59:00,
2013-02-09 19:04:00,67.4,66.2,29.86,ESE,120,8.0,12.0,96,0.00,,---,0.00,VWS V14.01,2013-02-10 01:04:00,
2013-02-09 19:09:00,67.4,66.2,29.86,SSE,152,5.0,13.0,96,0.00,,---,0.00,VWS V14.01,2013-02-10 01:09:00,
2013-02-09 19:14:00,67.3,66.1,29.86,ESE,121,9.0,14.0,96,0.00,,---,0.00,VWS V14.01,2013-02-10 01:14:00,
2013-02-09 19:20:00,67.3,66.1,29.86,SE,127,6.0,14.0,96,0.00,,---,0.00,VWS V14.01,2013-02-10 01:20:00,
2013-02-09 19:25:00,67.3,66.1,29.86,ESE,123,11.0,14.0,96,0.00,,---,0.00,VWS V14.01,2013-02-10 01:25:00,
2013-02-09 19:30:00,67.4,66.2,29.86,SE,124,13.0,14.0,96,0.00,,---,0.00,VWS V14.01,2013-02-10 01:30:00,
2013-02-09 19:35:00,67.5,66.3,29.86,ESE,117,9.0,14.0,96,0.00,,---,0.00,VWS V14.01,2013-02-10 01:35:00,
2013-02-09 19:40:00,67.8,66.6,29.86,East,95,6.0,16.0,96,0.00,,---,0.00,VWS V14.01,2013-02-10 01:40:00,
2013-02-09 19:45:00,67.9,66.7,29.87,SE,128,11.0,16.0,96,0.00,,---,0.00,VWS V14.01,2013-02-10 01:45:00,
2013-02-09 19:50:00,67.8,66.6,29.87,ESE,122,9.0,16.0,96,0.00,,---,0.00,VWS V14.01,2013-02-10 01:50:00,
2013-02-09 19:55:00,67.8,66.3,29.87,SE,125,6.0,16.0,95,0.00,,---,0.00,VWS V14.01,2013-02-10 01:55:00,
2013-02-09 20:00:00,67.6,66.1,29.87,ESE,118,8.0,16.0,95,0.00,,---,0.00,VWS V14.01,2013-02-10 02:00:00,
2013-02-09 20:05:00,67.5,66.0,29.87,ESE,105,8.0,12.0,95,0.00,,---,0.00,VWS V14.01,2013-02-10 02:05:00,
2013-02-09 20:10:00,67.3,66.1,29.87,ESE,120,7.0,12.0,96,0.00,,---,0.00,VWS V14.01,2013-02-10 02:10:00,
2013-02-09 20:15:00,67.2,66.0,29.87,ESE,110,7.0,12.0,96,0.00,,---,0.00,VWS V14.01,2013-02-10 02:15:00,
2013-02-09 20:20:00,67.1,65.9,29.87,SE,125,8.0,12.0,96,0.00,,---,0.00,VWS V14.01,2013-02-10 02:20:00,
2013-02-09 20:25:00,67.0,65.8,29.87,ESE,105,7.0,12.0,96,0.00,,---,0.00,VWS V14.01,2013-02-10 02:25:00,
2013-02-09 20:30:00,67.0,65.8,29.88,East,98,10.0,12.0,96,0.00,,---,0.00,VWS V14.01,2013-02-10 02:30:00,
2013-02-09 20:35:00,67.0,65.8,29.88,ESE,115,8.0,12.0,96,0.00,,---,0.00,VWS V14.01,2013-02-10 02:35:00,
2013-02-09 20:40:00,67.0,65.8,29.88,ESE,121,7.0,12.0,96,0.00,,---,0.00,VWS V14.01,2013-02-10 02:40:00,
2013-02-09 20:45:00,67.0,65.8,29.89,ESE,103,8.0,12.0,96,0.00,,---,0.00,VWS V14.01,2013-02-10 02:45:00,
2013-02-09 20:50:00,67.0,65.8,29.89,East,101,6.0,12.0,96,0.00,,---,0.00,VWS V14.01,2013-02-10 02:50:00,
2013-02-09 20:55:00,67.0,65.8,29.89,ESE,105,9.0,12.0,96,0.00,,---,0.00,VWS V14.01,2013-02-10 02:55:00,
2013-02-09 21:00:00,67.2,66.3,29.89,SE,126,7.0,12.0,97,0.00,,---,0.00,VWS V14.01,2013-02-10 03:00:00,
2013-02-09 21:05:00,67.5,66.6,29.88,SE,127,9.0,15.0,97,0.00,,---,0.00,VWS V14.01,2013-02-10 03:05:00,
2013-02-09 21:10:00,67.6,66.4,29.88,ESE,111,7.0,15.0,96,0.00,,---,0.00,VWS V14.01,2013-02-10 03:10:00,
2013-02-09 21:15:00,67.4,66.2,29.88,SE,138,7.0,15.0,96,0.00,,---,0.00,VWS V14.01,2013-02-10 03:15:00,
2013-02-09 21:20:00,67.3,66.1,29.88,SE,125,12.0,15.0,96,0.00,,---,0.00,VWS V14.01,2013-02-10 03:20:00,
2013-02-09 21:25:00,67.3,66.1,29.88,ESE,110,13.0,15.0,96,0.00,,---,0.00,VWS V14.01,2013-02-10 03:25:00,
2013-02-09 21:30:00,67.4,66.5,29.88,SE,129,4.0,15.0,97,0.00,,---,0.00,VWS V14.01,2013-02-10 03:30:00,
2013-02-09 21:35:00,67.5,66.6,29.88,SSE,149,5.0,15.0,97,0.00,,---,0.00,VWS V14.01,2013-02-10 03:35:00,
2013-02-09 21:40:00,67.5,66.3,29.88,SE,134,9.0,15.0,96,0.00,,---,0.00,VWS V14.01,2013-02-10 03:40:00,
2013-02-09 21:45:00,67.5,66.3,29.88,ESE,115,7.0,15.0,96,0.00,,---,0.00,VWS V14.01,2013-02-10 03:45:00,
2013-02-09 21:50:00,67.5,66.3,29.88,SSE,147,10.0,15.0,96,0.00,,---,0.00,VWS V14.01,2013-02-10 03:50:00,
2013-02-09 21:55:00,67.5,66.6,29.87,SE,129,12.0,15.0,97,0.00,,---,0.00,VWS V14.01,2013-02-10 03:55:00,
2013-02-09 22:00:00,67.5,66.6,29.87,ESE,122,5.0,15.0,97,0.00,,---,0.00,VWS V14.01,2013-02-10 04:00:00,
2013-02-09 22:05:00,67.5,66.6,29.87,ESE,105,10.0,13.0,97,0.00,,---,0.00,VWS V14.01,2013-02-10 04:05:00,
2013-02-09 22:10:00,67.4,66.2,29.87,SE,141,6.0,14.0,96,0.00,,---,0.00,VWS V14.01,2013-02-10 04:10:00,
2013-02-09 22:15:00,67.2,66.3,29.87,SE,146,8.0,14.0,97,0.00,,---,0.00,VWS V14.01,2013-02-10 04:15:00,
2013-02-09 22:20:00,67.2,66.3,29.88,SE,145,5.0,14.0,97,0.00,,---,0.00,VWS V14.01,2013-02-10 04:20:00,
2013-02-09 22:25:00,67.2,66.3,29.88,SSE,159,4.0,14.0,97,0.00,,---,0.00,VWS V14.01,2013-02-10 04:25:00,
2013-02-09 22:30:00,67.3,66.4,29.87,SE,135,9.0,14.0,97,0.00,,---,0.00,VWS V14.01,2013-02-10 04:30:00,
2013-02-09 22:35:00,67.6,66.7,29.87,SE,137,6.0,14.0,97,0.00,,---,0.00,VWS V14.01,2013-02-10 04:35:00,
2013-02-09 22:40:00,67.7,66.8,29.87,ESE,117,5.0,14.0,97,0.00,,---,0.00,VWS V14.01,2013-02-10 04:40:00,
2013-02-09 22:45:00,67.7,66.8,29.87,SSE,158,5.0,14.0,97,0.00,,---,0.00,VWS V14.01,2013-02-10 04:45:00,
2013-02-09 22:50:00,67.7,66.8,29.86,East,99,6.0,14.0,97,0.00,,---,0.00,VWS V14.01,2013-02-10 04:50:00,
2013-02-09 22:55:00,67.5,66.6,29.86,SSE,167,5.0,14.0,97,0.00,,---,0.00,VWS V14.01,2013-02-10 04:55:00,
2013-02-09 23:00:00,67.4,66.5,29.86,SE,133,9.0,14.0,97,0.00,,---,0.00,VWS V14.01,2013-02-10 05:00:00,
2013-02-09 23:05:00,67.3,66.4,29.85,SE,127,13.0,13.0,97,0.00,,---,0.00,VWS V14.01,2013-02-10 05:05:00,
2013-02-09 23:10:00,67.4,66.5,29.85,ESE,110,10.0,15.0,97,0.00,,---,0.00,VWS V14.01,2013-02-10 05:10:00,
2013-02-09 23:15:00,67.5,66.6,29.85,SE,132,7.0,16.0,97,0.00,,---,0.00,VWS V14.01,2013-02-10 05:15:00,
2013-02-09 23:20:00,67.6,66.7,29.84,SSE,149,6.0,16.0,97,0.00,,---,0.00,VWS V14.01,2013-02-10 05:20:00,
2013-02-09 23:25:00,67.7,66.8,29.85,SSE,149,6.0,16.0,97,0.00,,---,0.00,VWS V14.01,2013-02-10 05:25:00,
2013-02-09 23:30:00,67.8,66.9,29.85,ESE,115,4.0,16.0,97,0.00,,---,0.00,VWS V14.01,2013-02-10 05:30:00,
2013-02-09 23:35:00,68.0,67.1,29.85,SE,132,9.0,16.0,97,0.00,,---,0.00,VWS V14.01,2013-02-10 05:35:00,
2013-02-09 23:40:00,68.1,67.2,29.85,SE,125,9.0,16.0,97,0.00,,---,0.00,VWS V14.01,2013-02-10 05:40:00,
2013-02-09 23:45:00,68.0,67.1,29.85,SSE,150,8.0,16.0,97,0.00,,---,0.00,VWS V14.01,2013-02-10 05:45:00,
2013-02-09 23:50:00,68.0,67.1,29.85,SE,133,7.0,16.0,97,0.00,,---,0.00,VWS V14.01,2013-02-10 05:50:00,
2013-02-09 23:55:00,68.1,67.2,29.85,SSE,150,13.0,16.0,97,0.00,,---,0.00,VWS V14.01,2013-02-10 05:55:00,